Time;durP1;ratioP1;P1;durP2;ratioP2;P2;SDS_P1;SDS_P2;PMS_P1;PMS_P2;Temp;Humidity;BMP_temperature;BMP_pressure;BME280_temperature;BME280_humidity;BME280_pressure;Samples;Min_cycle;Max_cycle;Signal;HPM_P1;HPM_P2
2021/10/22 00:02:55;;;;;;;11.00;1.65;;;7.20;99.90;;;;;;6741575;88;20189;-75
2021/10/22 00:12:56;;;;;;;11.15;1.50;;;7.00;99.90;;;;;;6740646;88;20216;-76
2021/10/22 00:22:57;;;;;;;11.07;2.37;;;7.00;99.90;;;;;;6740849;88;20798;-77
2021/10/22 00:32:58;;;;;;;11.63;2.12;;;7.00;99.90;;;;;;6721122;88;20691;-77
2021/10/22 00:43:00;;;;;;;12.32;1.60;;;6.80;99.90;;;;;;6724441;88;20246;-78
2021/10/22 00:53:00;;;;;;;11.27;1.80;;;6.90;99.90;;;;;;6723998;88;20204;-77
2021/10/22 01:03:02;;;;;;;8.30;1.35;;;6.90;99.90;;;;;;6723305;88;20222;-78
2021/10/22 01:13:02;;;;;;;11.50;1.67;;;6.90;99.90;;;;;;6722670;88;20263;-77
2021/10/22 01:23:03;;;;;;;7.80;1.90;;;6.90;99.90;;;;;;6723304;88;20730;-78
2021/10/22 01:33:07;;;;;;;10.35;1.92;;;6.90;99.90;;;;;;6721366;88;20514;-78
2021/10/22 01:43:07;;;;;;;8.15;1.50;;;6.90;99.90;;;;;;6722428;88;20652;-76
2021/10/22 01:53:08;;;;;;;9.10;2.10;;;6.80;99.90;;;;;;6719486;88;20219;-78
2021/10/22 02:03:09;;;;;;;13.00;1.87;;;6.80;99.90;;;;;;6724687;88;20530;-76
2021/10/22 02:13:10;;;;;;;9.52;1.48;;;6.80;99.90;;;;;;6722937;88;20286;-78
2021/10/22 02:23:10;;;;;;;8.65;1.50;;;6.70;99.90;;;;;;6724759;88;20189;-77
2021/10/22 02:33:11;;;;;;;11.80;1.67;;;6.50;99.90;;;;;;6724364;88;20214;-78
2021/10/22 02:43:12;;;;;;;7.90;1.90;;;6.50;99.90;;;;;;6723643;88;20703;-77
2021/10/22 02:53:12;;;;;;;10.85;1.95;;;6.40;99.90;;;;;;6723522;88;20193;-77
2021/10/22 03:03:13;;;;;;;16.73;1.83;;;6.40;99.90;;;;;;6726681;88;20234;-77
2021/10/22 03:13:13;;;;;;;9.10;1.87;;;6.30;99.90;;;;;;6741520;88;20613;-77
2021/10/22 03:23:14;;;;;;;8.57;1.70;;;6.30;99.90;;;;;;6739390;88;20188;-77
2021/10/22 03:33:15;;;;;;;7.47;2.00;;;6.30;99.90;;;;;;6740270;88;20203;-77
2021/10/22 03:43:15;;;;;;;8.93;2.08;;;6.20;99.90;;;;;;6738595;88;21188;-77
2021/10/22 03:53:16;;;;;;;18.73;1.67;;;6.00;99.90;;;;;;6724081;88;20197;-77
2021/10/22 04:03:16;;;;;;;8.63;2.30;;;6.00;99.90;;;;;;6713461;77;20205;-74
2021/10/22 04:13:17;;;;;;;12.68;2.60;;;5.90;99.90;;;;;;6622566;88;20233;-74
2021/10/22 04:23:17;;;;;;;7.18;1.98;;;5.80;99.90;;;;;;6614911;88;20202;-74
2021/10/22 04:33:18;;;;;;;9.00;2.20;;;5.80;99.90;;;;;;6614375;88;20214;-74
2021/10/22 04:43:20;;;;;;;10.00;2.45;;;5.80;99.90;;;;;;6612113;88;20248;-73
2021/10/22 04:53:27;;;;;;;11.98;2.00;;;5.70;99.90;;;;;;6632268;88;20207;-74
2021/10/22 05:03:28;;;;;;;9.05;1.80;;;5.70;99.90;;;;;;6618055;89;20201;-73
2021/10/22 05:13:29;;;;;;;8.65;2.10;;;5.80;99.90;;;;;;6625277;88;20219;-74
2021/10/22 05:23:29;;;;;;;7.72;1.80;;;6.00;99.90;;;;;;6618732;88;20193;-73
2021/10/22 05:33:30;;;;;;;9.25;2.42;;;5.90;99.90;;;;;;6613048;88;20210;-73
2021/10/22 05:43:30;;;;;;;9.25;2.30;;;6.00;99.90;;;;;;6612307;88;20198;-73
2021/10/22 05:53:32;;;;;;;10.10;2.37;;;5.90;99.90;;;;;;6616981;88;20645;-73
2021/10/22 06:03:33;;;;;;;8.88;2.20;;;5.90;99.90;;;;;;6619657;88;20713;-73
2021/10/22 06:13:33;;;;;;;7.90;2.10;;;6.00;99.90;;;;;;6619020;88;20216;-74
2021/10/22 06:33:54;;;;;;;8.60;2.20;;;6.20;99.90;;;;;;6623003;89;20209;-73
2021/10/22 06:43:54;;;;;;;8.93;1.80;;;6.10;99.90;;;;;;6618677;89;20245;-74
2021/10/22 06:53:55;;;;;;;10.38;1.98;;;6.20;99.90;;;;;;6613436;88;20197;-74
2021/10/22 07:03:56;;;;;;;9.90;1.90;;;6.40;99.90;;;;;;6622976;89;20670;-73
2021/10/22 07:13:58;;;;;;;6.72;1.42;;;6.50;99.90;;;;;;6625378;88;20516;-75
2021/10/22 07:24:01;;;;;;;8.23;1.40;;;6.70;99.90;;;;;;6621051;88;20214;-75
2021/10/22 07:34:02;;;;;;;7.40;1.50;;;7.10;99.90;;;;;;6633745;88;20185;-74
2021/10/22 07:44:03;;;;;;;5.03;1.27;;;7.70;99.90;;;;;;6625630;88;20609;-74
2021/10/22 07:54:04;;;;;;;4.72;1.10;;;8.10;99.90;;;;;;6615676;89;20407;-74
2021/10/22 08:04:06;;;;;;;7.20;1.20;;;8.90;99.90;;;;;;6623521;89;20258;-74
2021/10/22 08:14:06;;;;;;;5.82;1.35;;;8.90;99.90;;;;;;6612697;88;20173;-74
2021/10/22 08:24:10;;;;;;;4.57;0.95;;;9.20;99.90;;;;;;6621883;88;20210;-74
2021/10/22 08:34:11;;;;;;;8.68;1.40;;;9.40;99.90;;;;;;6623592;88;20190;-74
2021/10/22 08:44:14;;;;;;;6.10;1.20;;;10.00;99.90;;;;;;6609835;88;20217;-74
2021/10/22 08:54:14;;;;;;;3.40;0.98;;;10.80;99.90;;;;;;6609295;88;20613;-74
2021/10/22 09:04:32;;;;;;;4.80;0.88;;;11.40;99.90;;;;;;6621444;88;20240;-74
2021/10/22 09:14:33;;;;;;;4.75;1.25;;;11.60;99.90;;;;;;6629496;88;20609;-74
2021/10/22 09:24:34;;;;;;;8.30;1.50;;;12.00;99.90;;;;;;6619419;89;20189;-75
2021/10/22 09:34:36;;;;;;;6.45;1.10;;;12.30;99.90;;;;;;6622051;88;20572;-74
2021/10/22 09:44:45;;;;;;;5.28;0.90;;;13.30;99.90;;;;;;6619398;88;20189;-74
2021/10/22 09:54:47;;;;;;;4.78;0.80;;;12.80;99.90;;;;;;6613018;89;20177;-75
2021/10/22 10:04:49;;;;;;;6.85;1.10;;;13.10;99.90;;;;;;6620340;88;20193;-76
2021/10/22 10:14:50;;;;;;;5.70;0.80;;;13.50;99.90;;;;;;6616750;88;20198;-76
2021/10/22 10:24:57;;;;;;;3.33;0.70;;;13.80;99.90;;;;;;6616957;89;20316;-75
2021/10/22 10:35:03;;;;;;;6.30;1.00;;;13.80;99.90;;;;;;6613176;88;20186;-76
2021/10/22 10:45:17;;;;;;;3.30;0.73;;;13.20;99.90;;;;;;6612804;88;20221;-76
2021/10/22 10:55:31;;;;;;;4.87;0.88;;;13.10;99.90;;;;;;6615179;88;20609;-74
2021/10/22 11:05:48;;;;;;;5.35;0.90;;;13.40;99.90;;;;;;6618791;88;20182;-74
2021/10/22 11:15:50;;;;;;;3.42;0.60;;;13.40;99.90;;;;;;6658032;88;20188;-74
2021/10/22 11:25:57;;;;;;;4.68;0.85;;;13.10;99.90;;;;;;6630226;88;20998;-75
2021/10/22 11:35:58;;;;;;;4.10;0.60;;;13.10;99.90;;;;;;6617594;88;20312;-74
2021/10/22 11:45:58;;;;;;;2.53;0.67;;;12.40;99.90;;;;;;6619376;88;20219;-74
2021/10/22 11:56:02;;;;;;;3.42;0.70;;;12.40;99.90;;;;;;6615614;89;20559;-75
2021/10/22 12:06:04;;;;;;;3.90;0.68;;;12.10;99.90;;;;;;6613428;88;20217;-74
2021/10/22 12:16:16;;;;;;;3.53;0.80;;;12.90;99.90;;;;;;6624270;89;20193;-74
2021/10/22 12:26:23;;;;;;;3.95;1.02;;;13.20;99.90;;;;;;6612889;88;20821;-74
2021/10/22 12:36:24;;;;;;;5.32;0.77;;;12.60;99.90;;;;;;6618534;88;20189;-74
2021/10/22 12:46:25;;;;;;;3.92;0.80;;;13.10;99.90;;;;;;6616645;88;20257;-77
2021/10/22 12:56:28;;;;;;;2.97;0.80;;;12.70;99.90;;;;;;6622729;88;20795;-74
2021/10/22 13:06:36;;;;;;;3.05;0.65;;;12.60;99.90;;;;;;6613781;88;20214;-74
2021/10/22 13:26:56;;;;;;;6.53;0.80;;;12.10;99.90;;;;;;6609777;88;20330;-74
2021/10/22 13:36:56;;;;;;;4.75;0.70;;;11.90;99.90;;;;;;6617178;88;20238;-75
2021/10/22 13:46:57;;;;;;;5.30;1.00;;;12.00;99.90;;;;;;6618637;88;20196;-75
2021/10/22 13:56:59;;;;;;;4.55;0.80;;;12.00;99.90;;;;;;6626810;88;20957;-76
2021/10/22 14:06:59;;;;;;;6.47;1.20;;;11.90;99.90;;;;;;6624910;88;20205;-75
2021/10/22 14:17:30;;;;;;;5.03;0.82;;;11.70;99.90;;;;;;6632442;88;20186;-76
2021/10/22 14:37:50;;;;;;;5.78;1.62;;;11.90;99.90;;;;;;6617346;88;20197;-76
2021/10/22 14:47:57;;;;;;;4.85;1.00;;;12.50;99.90;;;;;;6616588;88;20210;-77
2021/10/22 14:58:01;;;;;;;3.62;1.02;;;13.50;99.90;;;;;;6617911;88;20201;-77
2021/10/22 15:08:03;;;;;;;2.40;0.90;;;13.40;99.90;;;;;;6624875;89;20731;-75
2021/10/22 15:18:03;;;;;;;4.78;0.93;;;13.00;99.90;;;;;;6619992;88;20650;-77
2021/10/22 15:28:04;;;;;;;4.47;1.10;;;12.50;99.90;;;;;;6632558;88;20218;-78
2021/10/22 15:38:05;;;;;;;3.33;1.00;;;12.60;99.90;;;;;;6636517;88;20647;-79
2021/10/22 15:48:06;;;;;;;5.80;0.80;;;12.30;99.90;;;;;;6621600;89;20241;-77
2021/10/22 15:58:09;;;;;;;5.85;1.08;;;12.00;99.90;;;;;;6616875;89;20722;-73
2021/10/22 16:18:13;;;;;;;4.57;1.17;;;11.60;99.90;;;;;;6616923;88;20221;-74
2021/10/22 16:28:15;;;;;;;4.05;1.10;;;11.50;99.90;;;;;;6614292;88;20193;-72
2021/10/22 16:38:16;;;;;;;4.05;0.75;;;11.40;99.90;;;;;;6624151;89;20334;-74
2021/10/22 16:48:24;;;;;;;4.60;0.93;;;11.30;99.90;;;;;;6614291;88;20678;-74
2021/10/22 16:58:25;;;;;;;2.60;0.90;;;11.20;99.90;;;;;;6612646;89;20299;-74
2021/10/22 17:08:26;;;;;;;8.32;1.90;;;11.10;99.90;;;;;;6617756;88;22090;-75
2021/10/22 17:18:26;;;;;;;6.78;1.05;;;11.20;99.90;;;;;;6615408;88;20267;-74
2021/10/22 17:28:27;;;;;;;3.27;1.20;;;11.10;99.90;;;;;;6622237;88;20198;-76
2021/10/22 17:38:28;;;;;;;3.85;1.05;;;11.00;99.90;;;;;;6626756;89;20498;-75
2021/10/22 17:48:29;;;;;;;16.62;5.30;;;11.00;99.90;;;;;;6617302;89;20192;-74
2021/10/22 17:58:30;;;;;;;6.18;1.30;;;10.90;99.90;;;;;;6626163;89;20197;-75
2021/10/22 18:08:32;;;;;;;4.70;1.27;;;10.90;99.90;;;;;;6625206;89;20774;-74
2021/10/22 18:18:33;;;;;;;9.02;1.50;;;10.70;99.90;;;;;;6622100;88;20580;-75
2021/10/22 18:28:37;;;;;;;7.03;1.65;;;10.10;99.90;;;;;;6617452;88;20239;-74
2021/10/22 18:38:39;;;;;;;8.45;2.47;;;9.30;99.90;;;;;;6620635;89;20220;-73
2021/10/22 18:48:40;;;;;;;8.75;2.78;;;9.10;99.90;;;;;;6621743;89;20331;-72
2021/10/22 18:58:40;;;;;;;5.28;2.55;;;8.90;99.90;;;;;;6623193;88;20189;-72
2021/10/22 19:08:42;;;;;;;6.90;3.20;;;8.80;99.90;;;;;;6618335;88;20531;-73
2021/10/22 19:18:43;;;;;;;7.50;2.15;;;8.70;99.90;;;;;;6614367;88;20686;-72
2021/10/22 19:28:45;;;;;;;6.90;1.92;;;8.80;99.90;;;;;;6613856;88;20182;-73
2021/10/22 19:38:48;;;;;;;6.00;2.00;;;8.80;99.90;;;;;;6625292;89;20238;-73
2021/10/22 19:48:50;;;;;;;10.35;2.67;;;8.60;99.90;;;;;;6620218;88;20215;-74
2021/10/22 19:58:52;;;;;;;14.38;2.70;;;8.50;99.90;;;;;;6617330;88;20357;-73
2021/10/22 20:08:53;;;;;;;7.05;2.25;;;8.60;99.90;;;;;;6619292;89;20182;-74
2021/10/22 20:18:54;;;;;;;9.02;2.55;;;8.60;99.90;;;;;;6627697;88;20288;-75
2021/10/22 20:28:54;;;;;;;6.80;2.42;;;8.70;99.90;;;;;;6617743;88;20212;-73
2021/10/22 20:38:55;;;;;;;5.90;1.90;;;8.80;99.90;;;;;;6624628;88;20234;-74
2021/10/22 20:58:59;;;;;;;6.87;2.70;;;8.70;99.90;;;;;;6616419;88;20896;-72
2021/10/22 21:09:00;;;;;;;8.20;2.87;;;8.90;99.90;;;;;;6615895;88;20181;-74
2021/10/22 21:19:01;;;;;;;5.82;2.92;;;8.90;99.90;;;;;;6619397;89;20189;-74
2021/10/22 21:29:01;;;;;;;8.98;2.78;;;8.90;99.90;;;;;;6610934;88;20242;-74
2021/10/22 21:39:02;;;;;;;5.80;2.78;;;9.00;99.90;;;;;;6614461;88;20185;-74
2021/10/22 21:49:04;;;;;;;6.03;2.78;;;9.00;99.90;;;;;;6623465;88;20677;-74
2021/10/22 21:59:05;;;;;;;8.40;2.67;;;8.90;99.90;;;;;;6636375;88;20670;-75
2021/10/22 22:09:05;;;;;;;10.57;3.00;;;9.00;99.90;;;;;;6623660;88;20324;-74
2021/10/22 22:19:06;;;;;;;5.15;2.83;;;8.90;99.90;;;;;;6622526;88;20726;-74
2021/10/22 22:29:08;;;;;;;7.65;2.45;;;8.90;99.90;;;;;;6618208;88;20367;-74
2021/10/22 22:39:09;;;;;;;5.47;2.12;;;8.80;99.90;;;;;;6624715;88;20216;-73
2021/10/22 22:49:09;;;;;;;5.90;2.10;;;8.70;99.90;;;;;;6630610;88;20326;-73
2021/10/22 22:59:10;;;;;;;8.38;2.40;;;8.60;99.90;;;;;;6616089;88;20204;-72
2021/10/22 23:09:10;;;;;;;6.95;2.40;;;8.40;99.90;;;;;;6618792;88;20219;-73
2021/10/22 23:19:11;;;;;;;6.68;2.60;;;8.40;99.90;;;;;;6620636;88;20262;-73
2021/10/22 23:29:12;;;;;;;6.18;2.67;;;8.30;99.90;;;;;;6616111;88;20193;-73
2021/10/22 23:39:12;;;;;;;5.57;2.15;;;8.30;99.90;;;;;;6617422;88;20236;-73
2021/10/22 23:49:13;;;;;;;7.45;2.10;;;8.40;99.90;;;;;;6613960;89;20213;-73
2021/10/22 23:59:14;;;;;;;7.43;2.10;;;8.50;99.90;;;;;;6610799;89;20218;-72
